Time;durP1;ratioP1;P1;durP2;ratioP2;P2;SDS_P1;SDS_P2;PMS_P1;PMS_P2;Temp;Humidity;BMP_temperature;BMP_pressure;BME280_temperature;BME280_humidity;BME280_pressure;Samples;Min_cycle;Max_cycle;Signal;HPM_P1;HPM_P2
2022/05/04 00:00:36;;;;;;;10.10;1.80;;;8.50;99.90;;;;;;5101513;27;20032;-71
2022/05/04 00:03:01;;;;;;;10.07;1.23;;;8.50;99.90;;;;;;5106524;27;20071;-72
2022/05/04 00:05:27;;;;;;;10.85;2.08;;;8.50;99.90;;;;;;5113310;27;20047;-72
2022/05/04 00:07:53;;;;;;;13.73;2.05;;;8.50;99.90;;;;;;5103901;27;20048;-73
2022/05/04 00:10:19;;;;;;;10.18;1.33;;;8.50;99.90;;;;;;5100006;27;20078;-72
2022/05/04 00:12:44;;;;;;;10.45;2.15;;;8.50;99.90;;;;;;5090714;28;20050;-72
2022/05/04 00:15:10;;;;;;;8.30;1.33;;;8.40;99.90;;;;;;5110289;28;20044;-72
2022/05/04 00:17:36;;;;;;;14.60;2.05;;;8.40;99.90;;;;;;5108077;28;20067;-72
2022/05/04 00:20:02;;;;;;;8.18;1.50;;;8.40;99.90;;;;;;5100944;28;20129;-72
2022/05/04 00:22:28;;;;;;;8.82;1.67;;;8.40;99.90;;;;;;5102114;28;20096;-72
2022/05/04 00:24:54;;;;;;;9.70;2.15;;;8.40;99.90;;;;;;5099003;27;20047;-71
2022/05/04 00:27:20;;;;;;;7.90;2.55;;;8.40;99.90;;;;;;5108757;27;20031;-72
2022/05/04 00:29:46;;;;;;;8.88;1.35;;;8.90;99.90;;;;;;5080591;28;20093;-72
2022/05/04 00:32:13;;;;;;;8.50;1.70;;;8.40;99.90;;;;;;5099157;27;20097;-72
2022/05/04 00:34:39;;;;;;;7.65;1.67;;;8.40;99.90;;;;;;5107353;28;20464;-71
2022/05/04 00:37:05;;;;;;;11.52;1.50;;;8.40;99.90;;;;;;5096151;27;20559;-72
2022/05/04 00:39:30;;;;;;;9.35;1.30;;;8.40;99.90;;;;;;5103450;27;20071;-73
2022/05/04 00:42:10;;;;;;;9.90;1.25;;;8.40;99.90;;;;;;5104045;27;20407;-72
2022/05/04 00:44:36;;;;;;;9.15;1.20;;;8.40;99.90;;;;;;5106334;27;20090;-72
2022/05/04 00:47:03;;;;;;;8.70;1.45;;;9.50;99.90;;;;;;5105530;27;20502;-73
2022/05/04 00:49:29;;;;;;;10.05;1.77;;;8.40;99.90;;;;;;5100055;27;20128;-73
2022/05/04 00:51:55;;;;;;;10.30;1.48;;;8.40;99.90;;;;;;5090956;27;20071;-73
2022/05/04 00:54:20;;;;;;;8.95;1.65;;;8.40;99.90;;;;;;5104210;27;20043;-73
2022/05/04 00:56:47;;;;;;;8.05;1.05;;;8.30;99.90;;;;;;5105478;27;20047;-73
2022/05/04 00:59:12;;;;;;;12.18;2.13;;;8.30;99.90;;;;;;5094601;27;20075;-72
2022/05/04 01:01:38;;;;;;;10.98;1.52;;;9.10;99.90;;;;;;5108809;27;20120;-72
2022/05/04 01:04:04;;;;;;;8.60;1.80;;;8.30;99.90;;;;;;5092055;28;20048;-72
2022/05/04 01:06:30;;;;;;;5.82;1.25;;;8.30;99.90;;;;;;5102285;27;20079;-73
2022/05/04 01:08:55;;;;;;;9.98;1.77;;;8.30;99.90;;;;;;5103798;27;20546;-73
2022/05/04 01:11:22;;;;;;;12.70;1.40;;;8.20;99.90;;;;;;5102490;27;20036;-73
2022/05/04 01:14:06;;;;;;;9.27;1.20;;;8.20;99.90;;;;;;5104889;27;20658;-73
2022/05/04 01:16:33;;;;;;;8.63;1.63;;;8.30;99.90;;;;;;5109099;28;20092;-71
2022/05/04 01:19:00;;;;;;;8.95;1.65;;;8.30;99.90;;;;;;5090442;28;20032;-74
2022/05/04 01:21:25;;;;;;;6.30;1.48;;;9.40;99.90;;;;;;5086849;28;20051;-72
2022/05/04 01:23:53;;;;;;;6.55;1.48;;;8.30;99.90;;;;;;5078427;27;20498;-72
2022/05/04 01:26:19;;;;;;;8.98;1.55;;;8.30;99.90;;;;;;5086320;27;20067;-72
2022/05/04 01:28:46;;;;;;;7.25;1.60;;;8.30;99.90;;;;;;5090822;27;20122;-71
2022/05/04 01:31:12;;;;;;;7.05;1.70;;;8.30;99.90;;;;;;5090044;27;20164;-72
2022/05/04 01:33:38;;;;;;;6.50;1.70;;;8.20;99.90;;;;;;5096386;27;20447;-72
2022/05/04 01:36:04;;;;;;;6.28;1.60;;;8.20;99.90;;;;;;5093911;27;20178;-71
2022/05/04 01:38:30;;;;;;;7.63;1.40;;;8.20;99.90;;;;;;5089968;27;20115;-71
2022/05/04 01:40:56;;;;;;;10.27;1.95;;;8.20;99.90;;;;;;5087387;27;20122;-71
2022/05/04 01:43:21;;;;;;;7.68;1.23;;;8.20;99.90;;;;;;5094095;27;20471;-71
2022/05/04 01:45:47;;;;;;;10.05;1.48;;;8.20;99.90;;;;;;5105160;27;20042;-72
2022/05/04 01:48:12;;;;;;;5.90;1.15;;;8.10;99.90;;;;;;5101128;27;20058;-72
2022/05/04 01:50:38;;;;;;;11.57;2.00;;;8.20;99.90;;;;;;5095401;27;20067;-72
2022/05/04 01:53:04;;;;;;;8.88;1.45;;;8.20;99.90;;;;;;5101158;27;20467;-73
2022/05/04 01:55:33;;;;;;;9.20;1.13;;;8.20;99.90;;;;;;5101042;27;20047;-73
2022/05/04 01:57:59;;;;;;;4.90;1.38;;;8.20;99.90;;;;;;5108565;27;20647;-73
2022/05/04 02:00:27;;;;;;;9.98;1.42;;;8.10;99.90;;;;;;5094884;27;20408;-72
2022/05/04 02:02:53;;;;;;;6.47;1.08;;;8.10;99.90;;;;;;5086791;28;20052;-72
2022/05/04 02:05:19;;;;;;;9.20;2.05;;;8.10;99.90;;;;;;5100629;27;20101;-72
2022/05/04 02:07:45;;;;;;;7.70;1.05;;;8.10;99.90;;;;;;5101611;27;20063;-72
2022/05/04 02:10:11;;;;;;;8.85;1.30;;;8.10;99.90;;;;;;5104375;27;20071;-72
2022/05/04 02:12:37;;;;;;;11.82;2.75;;;8.10;99.90;;;;;;5098541;28;20099;-72
2022/05/04 02:15:05;;;;;;;13.85;1.50;;;8.10;99.90;;;;;;5110996;27;20047;-72
2022/05/04 02:17:31;;;;;;;5.50;2.15;;;8.10;99.90;;;;;;5105135;27;20098;-72
2022/05/04 02:19:57;;;;;;;8.68;1.33;;;8.00;99.90;;;;;;5098455;27;20453;-72
2022/05/04 02:22:22;;;;;;;7.82;1.42;;;8.10;99.90;;;;;;5108562;27;20035;-72
2022/05/04 02:24:48;;;;;;;6.72;1.30;;;8.10;99.90;;;;;;5094616;28;20039;-72
2022/05/04 02:27:13;;;;;;;13.30;1.45;;;8.10;99.90;;;;;;5114044;27;20394;-72
2022/05/04 02:29:39;;;;;;;10.77;1.10;;;8.10;99.90;;;;;;5108575;27;20047;-72
2022/05/04 02:32:05;;;;;;;11.50;2.13;;;8.10;99.90;;;;;;5101800;27;20530;-72
2022/05/04 02:34:31;;;;;;;8.35;1.92;;;8.00;99.90;;;;;;5096280;28;20048;-71
2022/05/04 02:39:41;;;;;;;8.48;1.83;;;8.00;99.90;;;;;;5111190;27;20040;-72
2022/05/04 02:42:06;;;;;;;13.77;1.90;;;8.00;99.90;;;;;;5110130;27;20061;-73
2022/05/04 02:44:32;;;;;;;6.05;1.50;;;8.00;99.90;;;;;;5107460;27;20128;-73
2022/05/04 02:46:58;;;;;;;8.57;2.15;;;8.00;99.90;;;;;;5102463;27;20043;-72
2022/05/04 02:49:23;;;;;;;8.82;2.42;;;8.00;99.90;;;;;;5075202;28;20108;-72
2022/05/04 02:51:49;;;;;;;11.52;1.95;;;8.00;99.90;;;;;;5098015;27;20047;-72
2022/05/04 02:54:14;;;;;;;9.38;1.88;;;8.00;99.90;;;;;;5091571;27;20126;-72
2022/05/04 02:56:40;;;;;;;6.47;1.30;;;8.00;99.90;;;;;;5100729;28;21301;-73
2022/05/04 02:59:06;;;;;;;9.77;1.70;;;8.00;99.90;;;;;;5103548;27;20072;-73
2022/05/04 03:04:16;;;;;;;6.50;1.20;;;7.90;99.90;;;;;;5104380;27;20075;-73
2022/05/04 03:06:42;;;;;;;7.97;1.90;;;7.90;99.90;;;;;;5101872;27;20584;-73
2022/05/04 03:09:11;;;;;;;9.85;3.10;;;7.90;99.90;;;;;;5100685;28;20046;-72
2022/05/04 03:11:56;;;;;;;11.30;3.75;;;7.90;99.90;;;;;;5094269;28;20441;-73
2022/05/04 03:14:23;;;;;;;16.13;2.80;;;7.90;99.90;;;;;;5104150;28;20038;-73
2022/05/04 03:16:51;;;;;;;8.65;1.95;;;8.20;99.90;;;;;;5100489;28;20042;-73
2022/05/04 03:19:17;;;;;;;9.23;2.35;;;7.80;99.90;;;;;;5100014;28;20056;-72
2022/05/04 03:21:43;;;;;;;10.75;1.30;;;7.90;99.90;;;;;;5101993;28;20055;-73
2022/05/04 03:24:09;;;;;;;9.25;1.50;;;7.90;99.90;;;;;;5099752;28;20043;-73
2022/05/04 03:26:35;;;;;;;10.38;1.40;;;9.20;99.90;;;;;;5105179;28;20051;-72
2022/05/04 03:29:02;;;;;;;8.60;1.67;;;7.90;99.90;;;;;;5067314;28;20048;-73
2022/05/04 03:31:28;;;;;;;8.30;1.75;;;7.90;99.90;;;;;;5105472;28;20424;-72
2022/05/04 03:33:53;;;;;;;13.73;1.98;;;8.00;99.90;;;;;;5100740;28;20047;-72
2022/05/04 03:36:19;;;;;;;9.30;1.85;;;8.00;99.90;;;;;;5106636;28;20043;-72
2022/05/04 03:38:45;;;;;;;7.10;1.92;;;8.00;99.90;;;;;;5095786;28;20036;-72
2022/05/04 03:41:10;;;;;;;6.20;1.67;;;8.00;99.90;;;;;;5102221;28;20039;-72
2022/05/04 03:43:36;;;;;;;9.88;1.98;;;8.00;99.90;;;;;;5102185;28;20044;-73
2022/05/04 03:46:19;;;;;;;11.02;1.55;;;8.40;99.90;;;;;;5105374;28;20047;-72
2022/05/04 03:48:47;;;;;;;7.05;1.63;;;9.10;99.90;;;;;;5102663;28;20065;-72
2022/05/04 03:51:19;;;;;;;12.18;2.25;;;8.00;99.90;;;;;;5114298;28;20123;-72
2022/05/04 03:53:45;;;;;;;6.82;1.48;;;8.00;99.90;;;;;;5093124;28;20535;-72
2022/05/04 03:56:11;;;;;;;9.98;1.90;;;8.00;99.90;;;;;;5101612;28;20085;-72
2022/05/04 03:58:39;;;;;;;11.52;2.10;;;8.00;99.90;;;;;;5099623;28;20051;-72
2022/05/04 04:01:05;;;;;;;8.10;1.88;;;8.00;99.90;;;;;;5104020;28;20032;-72
2022/05/04 04:03:31;;;;;;;8.40;1.65;;;8.00;99.90;;;;;;5104524;28;20043;-72
2022/05/04 04:05:57;;;;;;;12.15;2.50;;;7.90;99.90;;;;;;5102672;28;20444;-72
2022/05/04 04:08:23;;;;;;;10.57;1.63;;;7.90;99.90;;;;;;5103537;28;20047;-72
2022/05/04 04:10:49;;;;;;;10.55;2.03;;;7.90;99.90;;;;;;5096965;28;20123;-73
2022/05/04 04:13:15;;;;;;;9.25;1.63;;;7.80;99.90;;;;;;5099000;28;20112;-72
2022/05/04 04:15:41;;;;;;;4.25;1.27;;;7.80;99.90;;;;;;5101334;28;20052;-73
2022/05/04 04:18:07;;;;;;;8.45;1.23;;;7.90;99.90;;;;;;5110384;28;20075;-72
2022/05/04 04:23:17;;;;;;;5.15;1.20;;;7.80;99.90;;;;;;5110120;27;20055;-72
2022/05/04 04:25:43;;;;;;;5.93;1.23;;;7.90;99.90;;;;;;5103577;27;20040;-72
2022/05/04 04:28:09;;;;;;;7.68;2.40;;;7.90;99.90;;;;;;5101114;27;20047;-72
2022/05/04 04:30:39;;;;;;;10.75;1.90;;;7.90;99.90;;;;;;5109221;27;20471;-72
2022/05/04 04:33:08;;;;;;;7.30;1.77;;;7.90;99.90;;;;;;5104428;27;20399;-71
2022/05/04 04:35:34;;;;;;;7.93;1.50;;;7.90;99.90;;;;;;5110718;28;20044;-72
2022/05/04 04:38:01;;;;;;;22.23;2.20;;;7.90;99.90;;;;;;5088187;28;20043;-72
2022/05/04 04:40:26;;;;;;;9.18;3.40;;;8.10;99.90;;;;;;5106677;28;20047;-72
2022/05/04 04:42:52;;;;;;;13.02;2.65;;;7.90;99.90;;;;;;5086413;28;20376;-72
2022/05/04 04:45:18;;;;;;;5.32;1.73;;;7.90;99.90;;;;;;5106362;28;20032;-72
2022/05/04 04:47:47;;;;;;;7.90;2.17;;;8.00;99.90;;;;;;5097120;27;20456;-72
2022/05/04 04:50:13;;;;;;;7.45;1.85;;;8.00;99.90;;;;;;5091059;28;20062;-72
2022/05/04 04:52:40;;;;;;;10.23;1.48;;;7.90;99.90;;;;;;5102215;27;20048;-72
2022/05/04 04:55:06;;;;;;;8.45;2.08;;;8.00;99.90;;;;;;5108584;28;20078;-73
2022/05/04 04:57:33;;;;;;;9.48;1.88;;;8.00;99.90;;;;;;5103346;27;20044;-72
2022/05/04 04:59:59;;;;;;;9.75;1.60;;;8.00;99.90;;;;;;5101298;28;20762;-72
2022/05/04 05:02:25;;;;;;;7.53;1.27;;;7.90;99.90;;;;;;5086856;28;20437;-72
2022/05/04 05:04:51;;;;;;;6.43;1.48;;;7.90;99.90;;;;;;5105587;27;20036;-72
2022/05/04 05:07:17;;;;;;;12.60;1.88;;;7.90;99.90;;;;;;4751184;27;10000133;-72
2022/05/04 05:09:42;;;;;;;8.88;1.50;;;7.90;99.90;;;;;;5109078;27;20332;-72
2022/05/04 05:12:09;;;;;;;8.00;1.48;;;7.90;99.90;;;;;;5101499;28;20089;-72
2022/05/04 05:17:18;;;;;;;8.55;2.05;;;7.90;99.90;;;;;;5109347;28;20055;-72
2022/05/04 05:19:44;;;;;;;6.85;1.98;;;8.00;99.90;;;;;;5103091;28;20106;-72
2022/05/04 05:22:10;;;;;;;11.13;1.67;;;8.00;99.90;;;;;;5107140;27;20043;-72
2022/05/04 05:24:35;;;;;;;11.82;1.95;;;8.00;99.90;;;;;;5107071;28;20040;-73
2022/05/04 05:27:01;;;;;;;5.97;1.65;;;8.00;99.90;;;;;;5088457;27;20483;-72
2022/05/04 05:29:26;;;;;;;8.05;1.63;;;8.00;99.90;;;;;;5112439;27;20456;-72
2022/05/04 05:31:52;;;;;;;7.75;1.75;;;8.00;99.90;;;;;;5107184;28;20130;-72
2022/05/04 05:34:17;;;;;;;11.63;2.03;;;7.80;99.90;;;;;;5104658;28;20479;-71
2022/05/04 05:36:44;;;;;;;6.68;1.65;;;8.00;99.90;;;;;;5109950;28;20071;-71
2022/05/04 05:39:10;;;;;;;10.07;1.75;;;8.00;99.90;;;;;;5102254;28;20470;-71
2022/05/04 05:41:35;;;;;;;15.63;2.10;;;8.00;99.90;;;;;;5110453;28;20078;-72
2022/05/04 05:44:01;;;;;;;8.13;1.73;;;8.00;99.90;;;;;;5102921;27;20358;-71
2022/05/04 05:46:28;;;;;;;6.57;1.65;;;8.00;99.90;;;;;;5106394;27;20066;-71
2022/05/04 05:48:53;;;;;;;7.90;1.70;;;7.90;99.90;;;;;;5105052;27;20113;-71
2022/05/04 05:51:19;;;;;;;12.88;2.08;;;8.00;99.90;;;;;;5109818;28;20044;-71
2022/05/04 05:53:45;;;;;;;5.00;1.23;;;8.50;99.90;;;;;;5088706;28;20032;-71
2022/05/04 05:56:10;;;;;;;8.48;1.27;;;8.00;99.90;;;;;;5098930;28;20411;-71
2022/05/04 05:58:36;;;;;;;7.68;1.60;;;8.10;99.90;;;;;;5095501;27;20093;-71
2022/05/04 06:01:01;;;;;;;8.75;1.38;;;8.10;99.90;;;;;;5104096;28;20139;-71
2022/05/04 06:03:28;;;;;;;5.28;1.42;;;8.10;99.90;;;;;;5101294;27;20047;-71
2022/05/04 06:05:54;;;;;;;6.22;1.75;;;8.10;99.90;;;;;;5109454;27;20092;-75
2022/05/04 06:08:20;;;;;;;8.35;1.30;;;8.10;99.90;;;;;;5102277;27;20047;-71
2022/05/04 06:10:45;;;;;;;8.40;1.45;;;8.20;99.90;;;;;;5106307;28;20515;-72
2022/05/04 06:13:11;;;;;;;5.80;1.27;;;8.10;99.90;;;;;;5103957;27;20051;-71
2022/05/04 06:15:36;;;;;;;5.13;1.40;;;8.10;99.90;;;;;;5095944;28;20119;-72
2022/05/04 06:18:02;;;;;;;11.60;1.45;;;8.10;99.90;;;;;;5109122;28;20096;-71
2022/05/04 06:20:28;;;;;;;6.68;1.25;;;8.40;99.90;;;;;;5108041;28;20114;-71
2022/05/04 06:22:53;;;;;;;11.93;2.40;;;8.20;99.90;;;;;;5105377;28;20161;-72
2022/05/04 06:25:19;;;;;;;5.40;1.30;;;8.20;99.90;;;;;;5082272;28;20126;-72
2022/05/04 06:27:45;;;;;;;10.55;1.65;;;8.20;99.90;;;;;;5089888;28;20036;-71
2022/05/04 06:35:39;;;;;;;8.93;1.27;;;8.30;99.90;;;;;;5086688;27;20298;-71
2022/05/04 06:38:05;;;;;;;9.10;1.50;;;8.30;99.90;;;;;;5099602;27;20295;-73
2022/05/04 06:40:31;;;;;;;5.82;1.63;;;8.40;99.90;;;;;;5107629;28;20039;-72
2022/05/04 06:42:57;;;;;;;20.83;8.82;;;8.40;99.90;;;;;;5106274;28;20059;-72
2022/05/04 06:45:22;;;;;;;16.65;7.32;;;8.40;99.90;;;;;;5100624;27;20031;-72
2022/05/04 06:47:48;;;;;;;9.00;1.48;;;8.40;99.90;;;;;;5105806;27;20037;-72
2022/05/04 06:50:14;;;;;;;9.77;1.75;;;8.50;99.90;;;;;;5107300;28;20067;-72
2022/05/04 06:52:39;;;;;;;10.38;1.85;;;8.40;99.90;;;;;;5106280;27;20047;-72
2022/05/04 06:55:05;;;;;;;8.00;1.55;;;8.50;99.90;;;;;;5106511;28;20200;-72
2022/05/04 06:57:31;;;;;;;10.25;1.98;;;8.50;99.90;;;;;;5088024;28;20047;-71
2022/05/04 06:59:59;;;;;;;7.28;1.58;;;8.50;99.90;;;;;;5106987;28;20051;-72
2022/05/04 07:02:25;;;;;;;7.40;1.77;;;8.50;99.90;;;;;;5108796;28;20051;-72
2022/05/04 07:04:50;;;;;;;4.35;1.35;;;8.60;99.90;;;;;;5107260;27;20179;-72
2022/05/04 07:07:16;;;;;;;9.00;1.90;;;8.60;99.90;;;;;;5111329;27;20562;-71
2022/05/04 07:09:41;;;;;;;7.53;1.35;;;8.60;99.90;;;;;;5097404;28;20059;-72
2022/05/04 07:12:08;;;;;;;11.52;1.50;;;8.50;99.90;;;;;;5105244;28;20131;-71
2022/05/04 07:14:33;;;;;;;9.13;1.90;;;8.50;99.90;;;;;;5107894;28;20039;-71
2022/05/04 07:16:59;;;;;;;8.10;1.58;;;8.60;99.90;;;;;;5106388;28;20505;-71
2022/05/04 07:19:24;;;;;;;6.72;1.55;;;8.60;99.90;;;;;;5106808;28;20039;-71
2022/05/04 07:21:50;;;;;;;9.10;1.35;;;8.60;99.90;;;;;;5105846;28;20054;-71
2022/05/04 07:24:16;;;;;;;5.88;1.20;;;8.70;99.90;;;;;;5089629;28;20432;-71
2022/05/04 07:26:42;;;;;;;5.97;1.30;;;8.60;99.90;;;;;;5103892;28;20043;-72
2022/05/04 07:29:08;;;;;;;6.57;1.25;;;8.60;99.90;;;;;;5100182;28;20189;-71
2022/05/04 07:31:35;;;;;;;9.93;1.30;;;8.60;99.90;;;;;;5097667;28;20044;-70
2022/05/04 07:34:01;;;;;;;9.85;1.40;;;8.70;99.90;;;;;;5102678;28;20040;-71
2022/05/04 07:36:27;;;;;;;10.15;1.95;;;8.70;99.90;;;;;;5105127;28;20042;-71
2022/05/04 07:38:52;;;;;;;10.90;2.47;;;8.70;99.90;;;;;;5101132;28;20055;-70
2022/05/04 07:44:02;;;;;;;9.00;1.58;;;8.80;99.90;;;;;;5097504;28;20563;-72
2022/05/04 07:46:28;;;;;;;9.20;3.25;;;8.90;99.90;;;;;;5107507;28;20051;-72
2022/05/04 07:48:55;;;;;;;16.30;1.90;;;8.90;99.90;;;;;;4746218;28;10000606;-72
2022/05/04 07:51:21;;;;;;;6.93;1.30;;;8.90;99.90;;;;;;5103767;27;20047;-71
2022/05/04 07:53:47;;;;;;;8.45;1.90;;;8.90;99.90;;;;;;5086466;28;20282;-72
2022/05/04 07:56:12;;;;;;;8.60;1.33;;;9.40;99.90;;;;;;5098201;27;20577;-71
2022/05/04 07:58:38;;;;;;;8.07;1.58;;;9.00;99.90;;;;;;5104617;28;20479;-71
2022/05/04 08:06:32;;;;;;;9.32;1.33;;;9.30;99.90;;;;;;5097304;28;20097;-71
2022/05/04 08:08:57;;;;;;;10.52;1.88;;;9.50;99.90;;;;;;5094847;28;20454;-71
2022/05/04 08:11:23;;;;;;;5.95;1.25;;;9.60;99.90;;;;;;5091812;28;20051;-71
2022/05/04 08:13:48;;;;;;;10.88;1.55;;;9.70;99.90;;;;;;5077923;28;20518;-71
2022/05/04 08:16:14;;;;;;;7.72;1.27;;;9.70;99.90;;;;;;5108730;27;20130;-71
2022/05/04 08:18:40;;;;;;;5.65;1.23;;;9.70;99.90;;;;;;5106810;28;20044;-71
2022/05/04 08:21:08;;;;;;;14.15;1.85;;;9.80;99.90;;;;;;5092195;28;20051;-70
2022/05/04 08:23:34;;;;;;;6.88;1.98;;;9.80;99.90;;;;;;5104267;28;20119;-71
2022/05/04 08:26:01;;;;;;;8.05;1.42;;;9.90;99.90;;;;;;5110017;27;20430;-71
2022/05/04 08:28:27;;;;;;;8.77;1.40;;;9.90;99.90;;;;;;5089275;28;20043;-71
2022/05/04 08:30:52;;;;;;;6.95;1.48;;;10.00;99.90;;;;;;5106328;28;20380;-71
2022/05/04 08:33:18;;;;;;;7.55;1.75;;;9.90;99.90;;;;;;5107829;28;20039;-71
2022/05/04 08:35:44;;;;;;;3.72;1.10;;;9.90;99.90;;;;;;5103821;28;20502;-71
2022/05/04 08:38:12;;;;;;;8.07;1.23;;;9.90;99.90;;;;;;5104211;28;20088;-71
2022/05/04 08:40:38;;;;;;;8.60;1.58;;;10.00;99.90;;;;;;5106689;28;20038;-72
2022/05/04 08:43:07;;;;;;;7.00;1.38;;;10.00;99.90;;;;;;5107965;27;20453;-72
2022/05/04 08:45:36;;;;;;;7.43;1.45;;;10.10;99.90;;;;;;5112281;28;20044;-72
2022/05/04 08:48:04;;;;;;;11.10;1.73;;;10.10;99.90;;;;;;5110575;27;20059;-72
2022/05/04 08:50:31;;;;;;;7.80;1.40;;;10.00;99.90;;;;;;5107915;28;20058;-71
2022/05/04 08:53:02;;;;;;;9.52;1.63;;;9.90;99.90;;;;;;4903660;27;10000570;-75
2022/05/04 08:55:28;;;;;;;12.77;1.40;;;9.90;99.90;;;;;;5102781;28;20268;-73
2022/05/04 08:57:54;;;;;;;7.60;1.58;;;9.90;99.90;;;;;;5102243;28;20047;-74
2022/05/04 09:00:21;;;;;;;6.28;1.48;;;9.80;99.90;;;;;;5107000;28;20494;-73
2022/05/04 09:02:47;;;;;;;5.22;1.40;;;9.70;99.90;;;;;;5101189;28;20044;-74
2022/05/04 09:05:24;;;;;;;7.97;1.27;;;9.60;99.90;;;;;;5089019;28;20039;-76
2022/05/04 09:07:52;;;;;;;9.40;1.75;;;9.70;99.90;;;;;;5108967;27;20043;-75
2022/05/04 09:10:21;;;;;;;9.13;1.67;;;9.70;99.90;;;;;;5087891;28;20082;-75
2022/05/04 09:12:48;;;;;;;5.68;1.80;;;9.80;99.90;;;;;;5105741;28;20085;-74
2022/05/04 09:15:23;;;;;;;9.48;1.65;;;9.90;99.90;;;;;;5080084;28;20058;-76
2022/05/04 09:18:16;;;;;;;8.88;4.00;;;9.90;99.90;;;;;;5105771;28;20100;-75
2022/05/04 09:20:53;;;;;;;8.18;3.45;;;10.00;99.90;;;;;;5093304;28;20062;-76
2022/05/04 09:23:22;;;;;;;7.35;1.75;;;10.10;99.90;;;;;;5105114;28;20049;-75
2022/05/04 09:25:49;;;;;;;10.00;1.70;;;10.10;99.90;;;;;;5106858;28;20594;-76
2022/05/04 09:28:15;;;;;;;10.75;1.40;;;10.20;99.90;;;;;;5107392;27;20036;-76
2022/05/04 09:30:46;;;;;;;5.50;1.38;;;10.10;99.90;;;;;;5106841;28;20035;-74
2022/05/04 09:33:17;;;;;;;5.85;1.50;;;9.50;99.90;;;;;;5104386;28;20040;-76
2022/05/04 09:35:42;;;;;;;8.68;1.50;;;10.10;99.90;;;;;;5102263;28;20119;-74
2022/05/04 09:46:33;;;;;;;6.65;1.55;;;10.40;99.90;;;;;;5104328;28;20078;-74
2022/05/04 09:49:09;;;;;;;10.57;2.50;;;10.60;99.90;;;;;;5107138;27;20145;-76
2022/05/04 09:51:36;;;;;;;5.10;1.02;;;10.90;99.90;;;;;;5100355;28;20055;-74
2022/05/04 09:54:20;;;;;;;6.40;1.77;;;10.80;99.90;;;;;;5088997;28;20060;-75
2022/05/04 09:56:48;;;;;;;8.88;1.52;;;11.00;99.90;;;;;;5101900;28;20058;-74
2022/05/04 09:59:15;;;;;;;8.45;1.35;;;11.10;99.90;;;;;;5108216;28;20044;-77
2022/05/04 10:01:42;;;;;;;8.68;1.63;;;11.20;99.90;;;;;;5085813;28;20040;-74
2022/05/04 10:04:09;;;;;;;11.73;1.70;;;11.30;99.90;;;;;;5098598;28;20078;-73
2022/05/04 10:06:35;;;;;;;7.45;1.40;;;11.20;99.50;;;;;;5079282;28;20126;-75
2022/05/04 10:09:03;;;;;;;7.88;1.95;;;11.10;99.50;;;;;;5109391;28;20040;-74
2022/05/04 10:11:30;;;;;;;6.53;2.00;;;11.10;99.70;;;;;;5108680;28;20749;-74
2022/05/04 10:14:01;;;;;;;3.65;1.17;;;11.20;99.60;;;;;;5107429;28;20040;-74
2022/05/04 10:16:30;;;;;;;4.32;0.88;;;11.30;99.50;;;;;;5104036;28;20052;-74
2022/05/04 10:18:59;;;;;;;4.90;1.48;;;11.40;99.50;;;;;;5109724;27;20043;-75
2022/05/04 10:21:26;;;;;;;10.13;1.38;;;11.50;99.60;;;;;;5107969;28;20399;-75
2022/05/04 10:23:57;;;;;;;8.40;1.88;;;11.50;99.60;;;;;;5109317;28;20038;-75
2022/05/04 10:26:37;;;;;;;8.48;1.80;;;11.50;99.20;;;;;;5104760;28;20048;-75
2022/05/04 10:32:09;;;;;;;14.10;6.50;;;11.40;99.00;;;;;;5104707;28;20035;-74
2022/05/04 10:34:41;;;;;;;11.23;2.45;;;11.50;98.90;;;;;;5100347;28;20566;-74
2022/05/04 10:37:06;;;;;;;9.05;1.70;;;12.00;97.90;;;;;;5105580;28;20035;-73
2022/05/04 10:39:33;;;;;;;6.15;1.55;;;11.30;98.00;;;;;;5109257;27;20051;-74
2022/05/04 10:42:00;;;;;;;4.68;1.38;;;12.60;98.60;;;;;;5098922;28;20048;-74
2022/05/04 10:44:52;;;;;;;5.10;1.23;;;11.60;98.40;;;;;;5104362;28;20043;-76
2022/05/04 10:47:19;;;;;;;9.52;4.40;;;12.00;98.90;;;;;;5099941;28;20068;-72
2022/05/04 10:49:44;;;;;;;4.15;1.48;;;12.30;98.70;;;;;;5086557;28;20463;-77
2022/05/04 10:52:10;;;;;;;6.70;1.48;;;12.50;98.40;;;;;;5106934;27;20047;-72
2022/05/04 10:54:48;;;;;;;7.25;1.50;;;12.50;98.20;;;;;;5109065;28;20115;-73
2022/05/04 10:57:14;;;;;;;7.38;1.60;;;12.60;98.10;;;;;;5106883;28;20071;-73
2022/05/04 10:59:40;;;;;;;5.85;1.33;;;12.70;98.10;;;;;;5109122;28;20074;-73
2022/05/04 11:02:11;;;;;;;7.63;1.45;;;12.80;97.80;;;;;;5107666;28;20044;-74
2022/05/04 11:04:37;;;;;;;11.27;2.10;;;12.90;97.60;;;;;;5108033;28;20507;-75
2022/05/04 11:07:07;;;;;;;10.75;1.80;;;13.10;97.50;;;;;;5107039;28;20047;-74
2022/05/04 11:09:42;;;;;;;8.98;2.30;;;13.20;96.90;;;;;;5087337;28;20040;-73
2022/05/04 11:12:11;;;;;;;6.85;2.00;;;13.40;96.60;;;;;;5098915;28;20067;-73
2022/05/04 11:14:37;;;;;;;10.23;1.95;;;13.10;96.40;;;;;;5090759;28;20048;-73
2022/05/04 11:17:10;;;;;;;8.57;2.17;;;13.30;95.50;;;;;;5098653;28;20039;-73
2022/05/04 11:19:40;;;;;;;8.18;1.65;;;13.20;95.70;;;;;;5088839;28;20479;-73
2022/05/04 11:22:08;;;;;;;7.82;1.80;;;13.30;96.00;;;;;;5084322;28;20468;-73
2022/05/04 11:24:34;;;;;;;7.75;1.60;;;13.40;95.90;;;;;;5086225;28;20495;-74
2022/05/04 11:26:59;;;;;;;6.10;1.98;;;13.50;95.30;;;;;;5105622;28;20035;-75
2022/05/04 11:29:27;;;;;;;7.05;2.00;;;13.50;94.50;;;;;;5113135;28;20035;-75
2022/05/04 11:31:54;;;;;;;9.13;1.77;;;13.60;95.00;;;;;;5092670;28;20045;-75
2022/05/04 11:34:22;;;;;;;4.05;1.70;;;13.80;95.50;;;;;;5110890;28;20039;-74
2022/05/04 11:36:50;;;;;;;7.85;1.38;;;14.20;95.80;;;;;;5112102;28;20487;-74
2022/05/04 11:39:21;;;;;;;14.90;8.98;;;14.50;95.30;;;;;;5093731;28;20043;-74
2022/05/04 11:41:47;;;;;;;7.88;2.67;;;14.70;94.90;;;;;;5107189;27;20044;-76
2022/05/04 11:44:14;;;;;;;7.90;2.00;;;14.80;94.70;;;;;;5089784;28;20035;-74
2022/05/04 11:46:41;;;;;;;7.65;1.70;;;14.70;94.50;;;;;;5103308;28;20563;-73
2022/05/04 11:49:08;;;;;;;9.52;1.63;;;14.60;94.30;;;;;;5117044;27;20347;-75
2022/05/04 11:51:35;;;;;;;4.47;1.55;;;14.70;94.30;;;;;;5112500;27;20051;-74
2022/05/04 11:54:01;;;;;;;6.55;1.92;;;14.80;94.20;;;;;;5086025;28;20039;-74
2022/05/04 11:56:26;;;;;;;4.80;1.52;;;14.70;94.00;;;;;;5115872;27;20047;-75
2022/05/04 11:58:52;;;;;;;6.90;1.85;;;14.70;93.60;;;;;;5109995;27;20036;-74
2022/05/04 12:01:19;;;;;;;6.60;2.20;;;14.70;93.90;;;;;;5115591;27;20031;-73
2022/05/04 12:03:45;;;;;;;9.05;4.72;;;14.80;93.60;;;;;;5111052;28;20074;-73
2022/05/04 12:06:12;;;;;;;9.13;3.67;;;14.80;91.70;;;;;;5092634;28;20463;-76
2022/05/04 12:08:39;;;;;;;10.48;2.58;;;14.70;92.30;;;;;;5112329;28;20043;-74
2022/05/04 12:11:07;;;;;;;6.78;1.90;;;15.20;92.90;;;;;;5109491;27;20115;-73
2022/05/04 12:13:39;;;;;;;7.72;1.80;;;15.30;92.60;;;;;;5089733;28;20043;-75
2022/05/04 12:16:06;;;;;;;6.45;1.52;;;15.30;91.80;;;;;;5113038;27;20387;-75
2022/05/04 12:18:34;;;;;;;7.18;2.45;;;16.10;91.70;;;;;;5114306;27;20564;-76
2022/05/04 12:21:09;;;;;;;6.75;2.22;;;15.50;90.10;;;;;;5108705;27;20035;-77
2022/05/04 12:23:37;;;;;;;9.30;2.40;;;15.30;90.30;;;;;;5110576;28;20051;-77
2022/05/04 12:26:04;;;;;;;9.73;2.67;;;15.30;90.90;;;;;;5110433;28;20372;-73
2022/05/04 12:28:30;;;;;;;6.78;2.00;;;15.20;90.60;;;;;;5111643;27;20040;-76
2022/05/04 12:33:41;;;;;;;4.80;1.90;;;15.40;90.20;;;;;;5113714;27;20490;-74
2022/05/04 12:36:12;;;;;;;7.82;3.55;;;15.60;90.20;;;;;;5110154;28;20073;-76
2022/05/04 12:38:39;;;;;;;8.13;2.30;;;15.90;90.60;;;;;;5109945;27;20104;-76
2022/05/04 12:41:06;;;;;;;8.75;1.75;;;16.10;90.90;;;;;;5092553;28;20122;-74
2022/05/04 12:43:34;;;;;;;12.60;2.72;;;16.30;90.00;;;;;;5110704;28;20122;-76
2022/05/04 12:46:01;;;;;;;7.05;1.92;;;16.30;86.50;;;;;;5109173;28;20051;-74
2022/05/04 12:48:27;;;;;;;7.45;2.38;;;16.20;87.40;;;;;;5110198;28;20487;-74
2022/05/04 12:50:57;;;;;;;8.55;1.85;;;16.40;87.80;;;;;;5113848;27;20075;-76
2022/05/04 12:53:24;;;;;;;5.47;1.92;;;16.40;85.70;;;;;;5101919;28;20055;-76
2022/05/04 12:58:35;;;;;;;12.45;2.75;;;17.40;85.30;;;;;;5098851;28;20126;-72
2022/05/04 13:01:02;;;;;;;7.38;1.98;;;16.00;85.20;;;;;;5084436;28;20531;-72
2022/05/04 13:03:28;;;;;;;7.47;1.98;;;15.90;84.80;;;;;;5111163;27;20058;-74
2022/05/04 13:05:53;;;;;;;48.03;3.65;;;15.90;86.40;;;;;;5092734;28;20119;-73
2022/05/04 13:08:19;;;;;;;8.82;2.20;;;16.00;86.20;;;;;;5109875;27;20043;-74
2022/05/04 13:10:47;;;;;;;9.32;2.42;;;16.20;86.90;;;;;;5111515;27;20071;-74
2022/05/04 13:13:14;;;;;;;7.18;2.30;;;16.50;87.00;;;;;;5107677;28;20040;-73
2022/05/04 13:15:39;;;;;;;9.82;1.63;;;16.80;86.60;;;;;;5108533;27;20559;-75
2022/05/04 13:18:05;;;;;;;9.77;2.03;;;17.10;86.00;;;;;;5109155;28;20051;-75
2022/05/04 13:20:30;;;;;;;7.10;2.13;;;17.30;84.70;;;;;;5093611;28;20380;-75
2022/05/04 13:22:57;;;;;;;9.75;2.22;;;17.30;82.40;;;;;;5108735;28;20047;-74
2022/05/04 13:25:22;;;;;;;7.57;1.88;;;17.00;82.80;;;;;;5112382;27;20476;-74
2022/05/04 13:27:48;;;;;;;7.20;2.00;;;16.90;82.10;;;;;;5091159;28;20043;-73
2022/05/04 13:30:14;;;;;;;17.23;2.80;;;16.70;83.10;;;;;;5091119;28;20047;-73